createdAt,value
2023-01-20T00:01:48.309Z,11.10
2023-01-20T00:04:16.789Z,11.00
2023-01-20T00:06:43.387Z,9.60
2023-01-20T00:09:16.777Z,10.07
2023-01-20T00:11:44.619Z,10.02
2023-01-20T00:14:15.775Z,8.85
2023-01-20T00:16:44.167Z,9.55
2023-01-20T00:19:14.222Z,8.27
2023-01-20T00:21:42.916Z,8.68
2023-01-20T00:24:11.234Z,7.38
2023-01-20T00:26:38.768Z,7.32
2023-01-20T00:29:08.337Z,6.88
2023-01-20T00:31:36.177Z,7.30
2023-01-20T00:34:04.214Z,7.30
2023-01-20T00:36:32.351Z,7.03
2023-01-20T00:39:02.264Z,6.72
2023-01-20T00:41:30.528Z,6.82
2023-01-20T00:43:58.134Z,6.88
2023-01-20T00:46:26.426Z,6.88
2023-01-20T00:48:54.195Z,8.80
2023-01-20T00:51:20.913Z,7.55
2023-01-20T00:53:47.463Z,6.88
2023-01-20T00:56:15.141Z,7.30
2023-01-20T00:58:44.981Z,7.13
2023-01-20T01:01:12.505Z,7.10
2023-01-20T01:03:40.149Z,7.47
2023-01-20T01:06:09.215Z,5.57
2023-01-20T01:08:38.819Z,6.32
2023-01-20T01:11:06.647Z,6.50
2023-01-20T01:13:39.772Z,6.45
2023-01-20T01:16:13.991Z,6.68
2023-01-20T01:18:41.781Z,6.03
2023-01-20T01:21:13.048Z,6.40
2023-01-20T01:23:41.235Z,5.43
2023-01-20T01:26:07.915Z,5.80
2023-01-20T01:28:34.537Z,6.57
2023-01-20T01:31:07.800Z,5.85
2023-01-20T01:33:36.183Z,6.03
2023-01-20T01:36:04.055Z,5.75
2023-01-20T01:38:32.161Z,5.35
2023-01-20T01:41:01.772Z,5.03
2023-01-20T01:43:31.761Z,5.57
2023-01-20T01:45:58.596Z,6.28
2023-01-20T01:48:36.851Z,5.25
2023-01-20T01:51:17.177Z,5.03
2023-01-20T01:53:56.879Z,4.82
2023-01-20T01:56:25.532Z,5.32
2023-01-20T01:58:58.760Z,6.10
2023-01-20T02:01:27.265Z,5.25
2023-01-20T02:04:04.770Z,6.15
2023-01-20T02:06:35.270Z,6.60
2023-01-20T02:09:04.858Z,7.00
2023-01-20T02:11:38.042Z,6.55
2023-01-20T02:14:06.790Z,9.05
2023-01-20T02:16:53.145Z,6.78
2023-01-20T02:19:48.822Z,8.05
2023-01-20T02:22:29.796Z,7.55
2023-01-20T02:25:31.527Z,8.40
2023-01-20T02:28:44.825Z,8.35
2023-01-20T02:31:25.837Z,8.35
2023-01-20T02:34:16.644Z,9.02
2023-01-20T02:36:56.773Z,8.45
2023-01-20T02:39:44.262Z,10.10
2023-01-20T02:42:22.048Z,11.85
2023-01-20T02:45:17.557Z,10.57
2023-01-20T02:47:53.724Z,11.50
2023-01-20T02:50:28.762Z,13.98
2023-01-20T02:52:59.391Z,11.85
2023-01-20T02:55:46.776Z,12.57
2023-01-20T02:58:21.767Z,11.75
2023-01-20T03:01:19.809Z,13.45
2023-01-20T03:03:49.171Z,12.27
2023-01-20T03:06:21.116Z,13.55
2023-01-20T03:08:52.526Z,13.85
2023-01-20T03:11:20.300Z,12.90
2023-01-20T03:14:06.788Z,12.77
2023-01-20T03:16:35.557Z,12.02
2023-01-20T03:19:05.826Z,13.23
2023-01-20T03:21:34.114Z,13.15
2023-01-20T03:24:05.766Z,15.43
2023-01-20T03:26:32.736Z,13.55
2023-01-20T03:29:07.012Z,12.43
2023-01-20T03:31:39.737Z,13.63
2023-01-20T03:34:13.786Z,12.50
2023-01-20T03:36:45.795Z,11.80
2023-01-20T03:39:13.751Z,11.43
2023-01-20T03:42:04.812Z,13.10
2023-01-20T03:44:51.934Z,14.45
2023-01-20T03:47:40.814Z,10.85
2023-01-20T03:50:35.808Z,13.30
2023-01-20T03:53:28.259Z,12.75
2023-01-20T03:56:11.815Z,12.52
2023-01-20T03:58:42.993Z,13.40
2023-01-20T04:01:17.839Z,13.23
2023-01-20T04:03:47.188Z,13.73
2023-01-20T04:06:16.231Z,14.07
2023-01-20T04:08:49.318Z,13.45
2023-01-20T04:11:18.819Z,14.45
2023-01-20T04:13:48.809Z,13.97
2023-01-20T04:16:18.819Z,14.00
2023-01-20T04:18:50.664Z,14.57
2023-01-20T04:21:45.256Z,13.05
2023-01-20T04:24:28.175Z,14.52
2023-01-20T04:26:55.807Z,12.63
2023-01-20T04:29:24.168Z,13.68
2023-01-20T04:31:59.213Z,14.70
2023-01-20T04:34:27.810Z,13.98
2023-01-20T04:36:56.241Z,13.35
2023-01-20T04:39:24.278Z,14.80
2023-01-20T04:41:50.855Z,15.70
2023-01-20T04:44:17.376Z,15.07
2023-01-20T04:46:48.824Z,14.85
2023-01-20T04:49:18.822Z,15.45
2023-01-20T04:51:45.316Z,15.50
2023-01-20T04:54:13.804Z,16.63
2023-01-20T04:56:41.161Z,15.38
2023-01-20T04:59:10.835Z,14.73
2023-01-20T05:01:39.241Z,15.48
2023-01-20T05:04:07.158Z,15.55
2023-01-20T05:06:36.823Z,18.70
2023-01-20T05:09:05.174Z,15.98
2023-01-20T05:11:31.664Z,15.20
2023-01-20T05:13:58.817Z,15.98
2023-01-20T05:16:25.978Z,17.02
2023-01-20T05:18:54.235Z,17.15
2023-01-20T05:21:23.821Z,16.13
2023-01-20T05:23:51.837Z,17.55
2023-01-20T05:26:20.682Z,14.80
2023-01-20T05:28:48.830Z,16.75
2023-01-20T05:31:15.657Z,16.83
2023-01-20T05:33:43.780Z,17.42
2023-01-20T05:36:12.790Z,16.20
2023-01-20T05:38:39.296Z,16.30
2023-01-20T05:41:10.778Z,18.50
2023-01-20T05:43:41.843Z,15.25
2023-01-20T05:46:10.325Z,16.00
2023-01-20T05:48:38.246Z,17.65
2023-01-20T05:51:06.837Z,18.27
2023-01-20T05:53:35.173Z,15.05
2023-01-20T05:56:03.878Z,16.55
2023-01-20T05:58:33.164Z,15.77
2023-01-20T06:01:08.728Z,14.60
2023-01-20T06:03:36.789Z,18.17
2023-01-20T06:06:07.119Z,16.50
2023-01-20T06:08:34.065Z,17.00
2023-01-20T06:11:03.788Z,17.73
2023-01-20T06:13:30.342Z,16.42
2023-01-20T06:15:58.334Z,16.85
2023-01-20T06:18:27.796Z,17.85
2023-01-20T06:20:59.886Z,16.55
2023-01-20T06:23:28.527Z,16.85
2023-01-20T06:26:05.875Z,17.67
2023-01-20T06:28:35.878Z,18.70
2023-01-20T06:31:04.785Z,19.33
2023-01-20T06:33:32.811Z,17.38
2023-01-20T06:36:00.439Z,16.65
2023-01-20T06:38:30.088Z,17.42
2023-01-20T06:40:59.890Z,17.80
2023-01-20T06:43:28.768Z,17.55
2023-01-20T06:46:01.332Z,16.15
2023-01-20T06:48:30.852Z,17.33
2023-01-20T06:51:08.820Z,17.33
2023-01-20T06:53:37.880Z,16.20
2023-01-20T06:56:04.545Z,15.80
2023-01-20T06:58:32.756Z,16.85
2023-01-20T07:01:09.901Z,16.63
2023-01-20T07:03:39.825Z,19.27
2023-01-20T07:06:31.803Z,18.70
2023-01-20T07:09:01.820Z,17.13
2023-01-20T07:11:31.423Z,14.20
2023-01-20T07:13:59.848Z,14.63
2023-01-20T07:16:26.522Z,15.48
2023-01-20T07:18:56.821Z,16.65
2023-01-20T07:21:26.608Z,15.68
2023-01-20T07:23:54.843Z,15.23
2023-01-20T07:26:24.158Z,15.52
2023-01-20T07:28:52.477Z,16.85
2023-01-20T07:31:25.344Z,14.68
2023-01-20T07:33:53.798Z,16.48
2023-01-20T07:36:23.814Z,16.38
2023-01-20T07:38:53.863Z,17.17
2023-01-20T07:41:21.030Z,17.55
2023-01-20T07:43:53.836Z,16.92
2023-01-20T07:46:21.415Z,18.98
2023-01-20T07:48:49.842Z,19.10
2023-01-20T07:51:18.197Z,16.45
2023-01-20T07:53:47.843Z,18.10
2023-01-20T07:56:20.790Z,16.23
2023-01-20T07:58:50.895Z,16.58
2023-01-20T08:01:25.870Z,14.23
2023-01-20T08:03:54.606Z,15.77
2023-01-20T08:06:25.298Z,14.52
2023-01-20T08:08:53.753Z,13.93
2023-01-20T08:11:25.812Z,15.95
2023-01-20T08:13:52.807Z,15.27
2023-01-20T08:16:19.739Z,15.55
2023-01-20T08:18:48.513Z,14.55
2023-01-20T08:21:25.558Z,14.35
2023-01-20T08:23:57.797Z,13.82
2023-01-20T08:26:29.474Z,15.05
2023-01-20T08:29:02.601Z,12.77
2023-01-20T08:31:30.661Z,17.17
2023-01-20T08:33:57.289Z,13.82
2023-01-20T08:36:34.196Z,15.23
2023-01-20T08:39:04.749Z,14.23
2023-01-20T08:41:35.821Z,14.13
2023-01-20T08:44:06.934Z,12.93
2023-01-20T08:46:41.950Z,13.88
2023-01-20T08:49:16.308Z,14.50
2023-01-20T08:51:44.924Z,15.05
2023-01-20T08:54:11.487Z,18.60
2023-01-20T08:56:40.827Z,17.30
2023-01-20T08:59:07.585Z,16.98
2023-01-20T09:01:39.857Z,14.52
2023-01-20T09:04:07.656Z,15.57
2023-01-20T09:06:46.165Z,15.63
2023-01-20T09:09:15.900Z,17.48
2023-01-20T09:11:45.866Z,18.25
2023-01-20T09:14:12.440Z,18.45
2023-01-20T09:16:40.213Z,18.42
2023-01-20T09:19:06.725Z,17.98
2023-01-20T09:21:34.802Z,21.58
2023-01-20T09:24:02.210Z,19.40
2023-01-20T09:26:38.306Z,15.57
2023-01-20T09:29:10.214Z,18.27
2023-01-20T09:31:58.628Z,15.55
2023-01-20T09:34:27.548Z,16.85
2023-01-20T09:36:57.853Z,16.60
2023-01-20T09:39:43.705Z,17.52
2023-01-20T09:43:08.839Z,18.75
2023-01-20T09:45:43.755Z,17.15
2023-01-20T09:48:56.907Z,19.92
2023-01-20T09:51:59.640Z,19.23
2023-01-20T09:54:39.856Z,16.45
2023-01-20T09:57:09.417Z,16.35
2023-01-20T09:59:43.910Z,18.00
2023-01-20T10:02:18.811Z,17.40
2023-01-20T10:04:50.725Z,16.27
2023-01-20T10:07:25.879Z,17.50
2023-01-20T10:10:18.967Z,16.73
2023-01-20T10:12:56.938Z,17.08
2023-01-20T10:15:28.170Z,16.63
2023-01-20T10:18:00.900Z,17.52
2023-01-20T10:20:46.959Z,17.27
2023-01-20T10:23:21.505Z,16.65
2023-01-20T10:26:05.009Z,16.25
2023-01-20T10:28:53.449Z,16.23
2023-01-20T10:31:27.694Z,18.52
2023-01-20T10:33:58.900Z,14.95
2023-01-20T10:36:29.792Z,15.73
2023-01-20T10:38:57.836Z,17.70
2023-01-20T10:41:39.467Z,16.77
2023-01-20T10:44:12.422Z,17.65
2023-01-20T10:47:00.899Z,14.65
2023-01-20T10:49:53.729Z,15.43
2023-01-20T10:52:58.157Z,17.13
2023-01-20T10:55:51.448Z,14.63
2023-01-20T10:58:20.907Z,17.70
2023-01-20T11:00:50.085Z,15.38
2023-01-20T11:03:21.913Z,15.63
2023-01-20T11:05:53.816Z,16.05
2023-01-20T11:08:29.839Z,17.48
2023-01-20T11:11:08.953Z,18.73
2023-01-20T11:13:35.834Z,18.87
2023-01-20T11:16:14.202Z,16.65
2023-01-20T11:18:40.745Z,16.85
2023-01-20T11:21:11.590Z,16.83
2023-01-20T11:23:55.723Z,17.17
2023-01-20T11:26:37.823Z,18.80
2023-01-20T11:29:28.969Z,14.77
2023-01-20T11:31:56.304Z,16.70
2023-01-20T11:34:37.846Z,15.70
2023-01-20T11:37:06.234Z,15.63
2023-01-20T11:39:35.595Z,16.10
2023-01-20T11:42:26.854Z,14.90
2023-01-20T11:45:20.245Z,20.15
2023-01-20T11:48:00.384Z,15.93
2023-01-20T11:50:39.955Z,14.88
2023-01-20T11:53:27.895Z,14.60
2023-01-20T11:55:59.502Z,15.10
2023-01-20T11:58:29.192Z,14.55
2023-01-20T12:01:06.036Z,16.17
2023-01-20T12:04:06.945Z,14.90
2023-01-20T12:06:43.742Z,13.93
2023-01-20T12:09:16.892Z,17.17
2023-01-20T12:12:13.255Z,15.45
2023-01-20T12:15:12.235Z,15.10
2023-01-20T12:17:44.115Z,13.90
2023-01-20T12:20:53.695Z,13.85
2023-01-20T12:23:45.940Z,13.48
2023-01-20T12:26:18.185Z,14.75
2023-01-20T12:29:21.107Z,14.45
2023-01-20T12:31:49.310Z,13.77
2023-01-20T12:34:39.881Z,14.15
2023-01-20T12:37:20.828Z,15.25
2023-01-20T12:40:27.682Z,14.43
2023-01-20T12:43:07.782Z,13.77
2023-01-20T12:46:07.852Z,13.70
2023-01-20T12:48:37.839Z,13.50
2023-01-20T12:51:39.922Z,13.27
2023-01-20T12:54:19.832Z,12.23
2023-01-20T12:57:14.900Z,13.48
2023-01-20T13:00:01.766Z,11.93
2023-01-20T13:03:06.732Z,11.47
2023-01-20T13:05:50.389Z,12.50
2023-01-20T13:08:37.854Z,12.80
2023-01-20T13:11:17.908Z,12.70
2023-01-20T13:14:02.252Z,11.82
2023-01-20T13:16:43.888Z,12.25
2023-01-20T13:19:14.833Z,12.57
2023-01-20T13:21:43.906Z,11.73
2023-01-20T13:24:29.115Z,12.20
2023-01-20T13:26:59.244Z,11.45
2023-01-20T13:29:36.631Z,12.23
2023-01-20T13:32:28.398Z,11.48
2023-01-20T13:34:55.608Z,11.32
2023-01-20T13:37:23.342Z,11.48
2023-01-20T13:39:52.831Z,11.80
2023-01-20T13:42:36.314Z,12.43
2023-01-20T13:45:15.226Z,12.20
2023-01-20T13:47:59.974Z,12.30
2023-01-20T13:50:33.692Z,12.73
2023-01-20T13:53:10.370Z,11.80
2023-01-20T13:55:41.801Z,12.65
2023-01-20T13:58:27.322Z,13.15
2023-01-20T14:00:56.923Z,12.68
2023-01-20T14:03:31.301Z,12.95
2023-01-20T14:06:19.843Z,11.88
2023-01-20T14:08:49.119Z,12.53
2023-01-20T14:11:19.878Z,11.85
2023-01-20T14:13:56.804Z,13.27
2023-01-20T14:16:36.497Z,12.20
2023-01-20T14:19:27.941Z,14.63
2023-01-20T14:21:57.856Z,11.23
2023-01-20T14:24:32.355Z,13.48
2023-01-20T14:27:17.951Z,14.18
2023-01-20T14:29:46.833Z,14.02
2023-01-20T14:32:25.709Z,13.80
2023-01-20T14:34:54.834Z,13.10
2023-01-20T14:37:32.878Z,13.55
2023-01-20T14:40:23.411Z,14.05
2023-01-20T14:42:58.852Z,13.57
2023-01-20T14:45:29.713Z,15.07
2023-01-20T14:48:01.952Z,13.77
2023-01-20T14:50:30.405Z,15.10
2023-01-20T14:52:59.091Z,14.30
2023-01-20T14:55:30.250Z,13.93
2023-01-20T14:57:59.055Z,13.48
2023-01-20T15:00:33.885Z,15.07
2023-01-20T15:03:15.385Z,15.70
2023-01-20T15:06:17.079Z,13.20
2023-01-20T15:08:56.764Z,14.07
2023-01-20T15:11:32.563Z,13.93
2023-01-20T15:14:02.093Z,14.93
2023-01-20T15:16:30.213Z,12.70
2023-01-20T15:19:22.703Z,13.20
2023-01-20T15:21:52.921Z,14.65
2023-01-20T15:24:22.358Z,14.45
2023-01-20T15:26:51.836Z,13.13
2023-01-20T15:29:23.234Z,13.23
2023-01-20T15:31:51.944Z,13.35
2023-01-20T15:34:20.865Z,13.85
2023-01-20T15:36:52.960Z,13.55
2023-01-20T15:39:24.880Z,13.35
2023-01-20T15:41:57.002Z,13.13
2023-01-20T15:44:26.096Z,14.13
2023-01-20T15:46:55.384Z,12.57
2023-01-20T15:49:25.053Z,13.88
2023-01-20T15:51:53.333Z,13.43
2023-01-20T15:54:22.864Z,13.23
2023-01-20T15:56:49.466Z,13.52
2023-01-20T15:59:22.514Z,13.27
2023-01-20T16:01:50.692Z,12.18
2023-01-20T16:04:18.342Z,13.17
2023-01-20T16:06:44.981Z,12.65
2023-01-20T16:09:21.884Z,12.75
2023-01-20T16:11:50.373Z,12.80
2023-01-20T16:14:19.918Z,12.88
2023-01-20T16:16:49.420Z,13.38
2023-01-20T16:19:16.698Z,13.75
2023-01-20T16:21:45.739Z,13.70
2023-01-20T16:24:14.243Z,13.18
2023-01-20T16:26:44.896Z,12.77
2023-01-20T16:29:11.403Z,12.67
2023-01-20T16:31:39.900Z,12.63
2023-01-20T16:34:09.859Z,13.60
2023-01-20T16:36:38.241Z,14.60
2023-01-20T16:39:05.258Z,14.27
2023-01-20T16:41:31.897Z,13.00
2023-01-20T16:43:58.866Z,13.77
2023-01-20T16:46:29.892Z,13.30
2023-01-20T16:49:03.399Z,13.10
2023-01-20T16:51:30.897Z,14.05
2023-01-20T16:53:57.847Z,14.53
2023-01-20T16:56:27.659Z,14.38
2023-01-20T16:59:00.556Z,15.02
2023-01-20T17:01:30.042Z,15.25
2023-01-20T17:03:58.992Z,14.18
2023-01-20T17:06:32.927Z,14.45
2023-01-20T17:09:04.230Z,15.55
2023-01-20T17:11:36.743Z,14.63
2023-01-20T17:14:06.974Z,14.82
2023-01-20T17:16:35.272Z,15.48
2023-01-20T17:19:03.423Z,15.10
2023-01-20T17:21:33.604Z,14.73
2023-01-20T17:24:04.846Z,15.65
2023-01-20T17:26:33.284Z,17.30
2023-01-20T17:29:04.924Z,15.77
2023-01-20T17:31:37.216Z,15.05
2023-01-20T17:34:11.021Z,15.90
2023-01-20T17:36:40.888Z,14.45
2023-01-20T17:39:10.149Z,15.13
2023-01-20T17:41:36.775Z,14.10
2023-01-20T17:44:04.014Z,15.13
2023-01-20T17:46:33.868Z,15.30
2023-01-20T17:49:04.715Z,15.98
2023-01-20T17:51:31.408Z,15.10
2023-01-20T17:53:59.281Z,14.32
2023-01-20T17:56:27.211Z,15.68
2023-01-20T17:58:54.041Z,17.15
2023-01-20T18:01:26.956Z,16.30
2023-01-20T18:03:56.760Z,15.77
2023-01-20T18:06:25.439Z,14.75
2023-01-20T18:08:58.271Z,14.63
2023-01-20T18:11:27.165Z,15.77
2023-01-20T18:13:56.125Z,15.63
2023-01-20T18:16:26.592Z,16.67
2023-01-20T18:18:58.653Z,16.55
2023-01-20T18:21:36.443Z,14.80
2023-01-20T18:24:07.261Z,16.40
2023-01-20T18:26:35.590Z,15.38
2023-01-20T18:29:05.651Z,15.98
2023-01-20T18:31:33.545Z,15.50
2023-01-20T18:34:04.070Z,14.30
2023-01-20T18:36:42.897Z,14.80
2023-01-20T18:39:24.572Z,15.07
2023-01-20T18:41:51.764Z,16.73
2023-01-20T18:44:20.172Z,15.80
2023-01-20T18:46:47.387Z,16.00
2023-01-20T18:49:17.881Z,15.90
2023-01-20T18:51:46.237Z,15.45
2023-01-20T18:54:18.059Z,16.67
2023-01-20T18:56:46.408Z,14.23
2023-01-20T18:59:13.324Z,14.45
2023-01-20T19:01:40.975Z,14.40
2023-01-20T19:04:11.823Z,15.85
2023-01-20T19:06:41.908Z,15.77
2023-01-20T19:09:10.881Z,15.88
2023-01-20T19:11:40.944Z,14.77
2023-01-20T19:14:13.584Z,15.55
2023-01-20T19:16:49.440Z,15.05
2023-01-20T19:19:17.696Z,14.07
2023-01-20T19:21:51.930Z,14.85
2023-01-20T19:24:22.880Z,13.65
2023-01-20T19:26:52.876Z,15.27
2023-01-20T19:29:19.666Z,16.00
2023-01-20T19:31:47.967Z,15.23
2023-01-20T19:34:16.907Z,15.07
2023-01-20T19:36:43.417Z,15.18
2023-01-20T19:39:12.912Z,15.60
2023-01-20T19:41:42.922Z,15.18
2023-01-20T19:44:14.922Z,15.25
2023-01-20T19:46:43.343Z,14.18
2023-01-20T19:49:13.910Z,14.57
2023-01-20T19:51:40.479Z,14.93
2023-01-20T19:54:13.740Z,16.10
2023-01-20T19:56:43.872Z,17.27
2023-01-20T19:59:14.063Z,16.75
2023-01-20T20:01:41.722Z,16.48
2023-01-20T20:04:10.321Z,18.85
2023-01-20T20:06:48.070Z,17.40
2023-01-20T20:09:19.180Z,15.93
2023-01-20T20:11:48.154Z,17.45
2023-01-20T20:14:18.425Z,16.42
2023-01-20T20:16:45.205Z,16.92
2023-01-20T20:19:17.007Z,16.83
2023-01-20T20:21:44.936Z,16.10
2023-01-20T20:24:17.041Z,15.00
2023-01-20T20:26:46.610Z,14.80
2023-01-20T20:29:17.877Z,13.88
2023-01-20T20:31:44.652Z,16.23
2023-01-20T20:34:16.900Z,15.07
2023-01-20T20:36:44.946Z,14.90
2023-01-20T20:39:15.247Z,14.87
2023-01-20T20:41:46.971Z,14.35
2023-01-20T20:44:15.287Z,16.00
2023-01-20T20:46:45.198Z,14.90
2023-01-20T20:49:16.907Z,14.60
2023-01-20T20:51:44.906Z,15.38
2023-01-20T20:54:15.264Z,15.32
2023-01-20T20:56:45.930Z,14.63
2023-01-20T20:59:14.051Z,15.23
2023-01-20T21:01:40.618Z,13.27
2023-01-20T21:04:07.558Z,16.25
2023-01-20T21:06:34.216Z,15.77
2023-01-20T21:09:03.901Z,17.10
2023-01-20T21:11:32.297Z,16.52
2023-01-20T21:13:59.892Z,17.25
2023-01-20T21:16:30.000Z,16.35
2023-01-20T21:18:58.152Z,16.65
2023-01-20T21:21:25.418Z,16.55
2023-01-20T21:23:55.841Z,16.08
2023-01-20T21:26:27.733Z,16.80
2023-01-20T21:29:00.188Z,17.20
2023-01-20T21:31:27.079Z,19.00
2023-01-20T21:33:55.088Z,18.70
2023-01-20T21:36:22.244Z,15.98
2023-01-20T21:38:49.359Z,16.38
2023-01-20T21:41:18.458Z,16.48
2023-01-20T21:44:04.760Z,18.02
2023-01-20T21:46:39.301Z,17.27
2023-01-20T21:49:28.869Z,16.52
2023-01-20T21:52:14.999Z,16.08
2023-01-20T21:54:42.006Z,17.42
2023-01-20T21:57:09.896Z,19.65
2023-01-20T21:59:37.091Z,18.83
2023-01-20T22:02:07.958Z,17.33
2023-01-20T22:04:34.584Z,16.90
2023-01-20T22:07:01.147Z,17.65
2023-01-20T22:09:29.300Z,17.33
2023-01-20T22:11:58.913Z,17.98
2023-01-20T22:14:25.717Z,19.40
2023-01-20T22:16:53.919Z,17.85
2023-01-20T22:19:21.922Z,18.33
2023-01-20T22:21:49.327Z,17.30
2023-01-20T22:24:17.338Z,17.52
2023-01-20T22:26:50.612Z,17.15
2023-01-20T22:29:18.888Z,16.83
2023-01-20T22:31:46.377Z,18.10
2023-01-20T22:34:15.930Z,17.27
2023-01-20T22:36:46.545Z,18.83
2023-01-20T22:39:15.887Z,15.98
2023-01-20T22:41:42.736Z,14.48
2023-01-20T22:44:10.293Z,16.27
2023-01-20T22:46:38.334Z,16.23
2023-01-20T22:49:07.911Z,17.15
2023-01-20T22:51:36.262Z,16.40
2023-01-20T22:54:04.899Z,15.18
2023-01-20T22:56:33.437Z,17.27
2023-01-20T22:59:01.337Z,15.95
2023-01-20T23:01:32.059Z,14.98
2023-01-20T23:04:04.941Z,16.45
2023-01-20T23:06:35.716Z,14.70
2023-01-20T23:09:08.703Z,15.23
2023-01-20T23:11:39.887Z,14.88
2023-01-20T23:14:13.880Z,15.13
2023-01-20T23:16:43.988Z,13.30
2023-01-20T23:19:13.954Z,13.55
2023-01-20T23:21:43.907Z,14.77
2023-01-20T23:24:11.905Z,14.38
2023-01-20T23:26:38.485Z,14.35
2023-01-20T23:29:05.264Z,14.52
2023-01-20T23:31:35.162Z,13.40
2023-01-20T23:34:03.421Z,13.32
2023-01-20T23:36:31.948Z,13.82
2023-01-20T23:38:58.537Z,13.63
2023-01-20T23:41:26.343Z,14.43
2023-01-20T23:43:55.921Z,14.25
2023-01-20T23:46:22.588Z,14.00
2023-01-20T23:48:52.303Z,13.55
2023-01-20T23:51:20.016Z,13.57
2023-01-20T23:53:48.276Z,13.30
2023-01-20T23:56:20.203Z,14.73
2023-01-20T23:58:48.930Z,12.75
